createdAt,value
2022-12-19T00:00:35.868Z,8.33
2022-12-19T00:03:23.180Z,5.83
2022-12-19T00:06:10.360Z,7.83
2022-12-19T00:08:59.087Z,6.97
2022-12-19T00:11:46.319Z,5.93
2022-12-19T00:14:32.918Z,5.83
2022-12-19T00:17:21.319Z,7.20
2022-12-19T00:20:09.516Z,6.10
2022-12-19T00:22:59.274Z,5.40
2022-12-19T00:25:46.171Z,6.60
2022-12-19T00:28:34.082Z,6.67
2022-12-19T00:31:22.730Z,6.00
2022-12-19T00:34:11.870Z,6.03
2022-12-19T00:36:58.937Z,5.30
2022-12-19T00:39:46.896Z,5.50
2022-12-19T00:42:33.921Z,5.97
2022-12-19T00:45:20.962Z,6.10
2022-12-19T00:48:07.913Z,6.43
2022-12-19T00:51:02.437Z,6.53
2022-12-19T00:53:50.765Z,6.60
2022-12-19T00:56:38.494Z,7.23
2022-12-19T00:59:26.754Z,6.67
2022-12-19T01:02:14.105Z,7.60
2022-12-19T01:05:01.293Z,6.27
2022-12-19T01:07:49.642Z,7.13
2022-12-19T01:10:36.775Z,7.50
2022-12-19T01:13:24.325Z,6.37
2022-12-19T01:16:13.698Z,6.70
2022-12-19T01:19:00.928Z,8.37
2022-12-19T01:21:50.347Z,8.00
2022-12-19T01:24:40.693Z,7.17
2022-12-19T01:27:27.567Z,8.20
2022-12-19T01:30:15.384Z,8.00
2022-12-19T01:33:02.750Z,6.63
2022-12-19T01:35:51.169Z,6.57
2022-12-19T01:38:38.642Z,6.33
2022-12-19T01:41:27.416Z,6.50
2022-12-19T01:44:14.609Z,8.20
2022-12-19T01:47:02.786Z,6.73
2022-12-19T01:49:49.630Z,6.73
2022-12-19T01:52:36.965Z,6.53
2022-12-19T01:55:24.211Z,6.43
2022-12-19T01:58:14.153Z,7.23
2022-12-19T02:01:01.293Z,8.37
2022-12-19T02:03:49.704Z,10.17
2022-12-19T02:06:36.718Z,5.37
2022-12-19T02:09:26.493Z,6.17
2022-12-19T02:12:14.094Z,6.00
2022-12-19T02:15:05.139Z,6.10
2022-12-19T02:18:05.084Z,8.20
2022-12-19T02:21:19.803Z,9.33
2022-12-19T02:24:39.524Z,5.57
2022-12-19T02:27:59.785Z,6.03
2022-12-19T02:31:08.181Z,5.40
2022-12-19T02:34:09.950Z,6.33
2022-12-19T02:37:02.018Z,6.10
2022-12-19T02:39:56.097Z,5.23
2022-12-19T02:42:46.577Z,4.63
2022-12-19T02:45:38.392Z,4.93
2022-12-19T02:48:28.059Z,4.73
2022-12-19T02:51:14.746Z,4.63
2022-12-19T02:54:01.670Z,5.20
2022-12-19T02:56:56.019Z,4.43
2022-12-19T02:59:57.171Z,4.57
2022-12-19T03:03:00.560Z,4.53
2022-12-19T03:06:02.058Z,3.93
2022-12-19T03:08:55.356Z,4.40
2022-12-19T03:11:43.406Z,4.90
2022-12-19T03:14:32.413Z,4.67
2022-12-19T03:17:22.650Z,3.67
2022-12-19T03:20:15.427Z,4.00
2022-12-19T03:23:03.945Z,4.50
2022-12-19T03:25:58.460Z,3.87
2022-12-19T03:28:51.142Z,4.63
2022-12-19T03:31:40.017Z,4.47
2022-12-19T03:34:30.803Z,3.43
2022-12-19T03:37:20.444Z,4.07
2022-12-19T03:40:12.662Z,4.00
2022-12-19T03:43:12.103Z,4.17
2022-12-19T03:46:04.066Z,3.70
2022-12-19T03:48:53.708Z,3.60
2022-12-19T03:51:48.208Z,3.73
2022-12-19T03:54:42.109Z,3.37
2022-12-19T03:57:36.065Z,3.90
2022-12-19T04:00:24.953Z,3.57
2022-12-19T04:03:13.259Z,4.20
2022-12-19T04:06:03.158Z,4.10
2022-12-19T04:08:51.425Z,3.40
2022-12-19T04:11:43.135Z,3.93
2022-12-19T04:14:34.016Z,3.77
2022-12-19T04:17:31.624Z,3.50
2022-12-19T04:20:20.089Z,2.97
2022-12-19T04:23:14.971Z,3.70
2022-12-19T04:26:04.451Z,3.60
2022-12-19T04:28:54.550Z,3.63
2022-12-19T04:31:43.675Z,3.63
2022-12-19T04:34:36.851Z,3.43
2022-12-19T04:37:27.381Z,3.07
2022-12-19T04:40:15.122Z,2.63
2022-12-19T04:43:02.837Z,3.07
2022-12-19T04:45:55.516Z,2.60
2022-12-19T04:48:45.508Z,2.50
2022-12-19T04:51:32.559Z,2.60
2022-12-19T04:54:19.318Z,2.47
2022-12-19T04:57:06.215Z,2.17
2022-12-19T04:59:53.524Z,2.23
2022-12-19T05:02:41.391Z,2.00
2022-12-19T05:05:30.272Z,2.47
2022-12-19T05:08:17.455Z,3.10
2022-12-19T05:11:05.408Z,2.50
2022-12-19T05:13:52.667Z,2.57
2022-12-19T05:16:39.879Z,2.30
2022-12-19T05:19:27.014Z,2.37
2022-12-19T05:22:15.723Z,2.80
2022-12-19T05:25:02.665Z,2.33
2022-12-19T05:27:49.962Z,2.33
2022-12-19T05:30:37.142Z,3.00
2022-12-19T05:33:24.236Z,2.77
2022-12-19T05:36:12.339Z,2.60
2022-12-19T05:39:00.564Z,2.37
2022-12-19T05:41:49.322Z,2.87
2022-12-19T05:44:37.541Z,1.73
2022-12-19T05:47:24.653Z,2.37
2022-12-19T05:50:12.169Z,2.10
2022-12-19T05:52:59.026Z,2.10
2022-12-19T05:55:47.469Z,2.20
2022-12-19T05:58:35.044Z,2.53
2022-12-19T06:01:23.783Z,2.40
2022-12-19T06:04:10.854Z,2.50
2022-12-19T06:06:58.248Z,2.20
2022-12-19T06:09:45.510Z,3.23
2022-12-19T06:12:34.215Z,2.80
2022-12-19T06:15:21.378Z,2.47
2022-12-19T06:18:08.459Z,2.13
2022-12-19T06:20:59.800Z,2.23
2022-12-19T06:23:46.985Z,1.90
2022-12-19T06:26:33.841Z,2.67
2022-12-19T06:29:22.204Z,2.70
2022-12-19T06:32:09.216Z,2.80
2022-12-19T06:35:04.177Z,2.50
2022-12-19T06:37:53.619Z,2.93
2022-12-19T06:41:02.083Z,3.20
2022-12-19T06:43:53.416Z,3.07
2022-12-19T06:46:42.527Z,2.90
2022-12-19T06:49:30.525Z,2.37
2022-12-19T06:52:18.002Z,2.57
2022-12-19T06:55:06.044Z,2.97
2022-12-19T06:57:53.171Z,2.07
2022-12-19T07:00:40.237Z,2.63
2022-12-19T07:03:33.607Z,2.70
2022-12-19T07:06:20.701Z,4.00
2022-12-19T07:09:08.265Z,2.90
2022-12-19T07:11:56.258Z,2.63
2022-12-19T07:14:43.496Z,3.13
2022-12-19T07:17:31.237Z,2.83
2022-12-19T07:20:20.870Z,3.37
2022-12-19T07:23:08.859Z,3.47
2022-12-19T07:25:56.004Z,2.67
2022-12-19T07:28:44.680Z,4.50
2022-12-19T07:31:31.776Z,4.87
2022-12-19T07:34:19.190Z,3.30
2022-12-19T07:37:08.146Z,5.10
2022-12-19T07:39:55.137Z,4.00
2022-12-19T07:42:42.082Z,6.17
2022-12-19T07:45:29.443Z,4.70
2022-12-19T07:48:16.516Z,4.47
2022-12-19T07:51:05.529Z,5.20
2022-12-19T07:53:53.592Z,4.40
2022-12-19T07:56:41.277Z,4.40
2022-12-19T07:59:32.230Z,3.87
2022-12-19T08:02:22.811Z,4.10
2022-12-19T08:05:11.523Z,4.07
2022-12-19T08:07:58.482Z,5.43
2022-12-19T08:10:47.003Z,4.67
2022-12-19T08:13:39.618Z,4.87
2022-12-19T08:16:30.333Z,4.37
2022-12-19T08:19:17.683Z,3.77
2022-12-19T08:22:06.206Z,3.30
2022-12-19T08:24:53.970Z,4.13
2022-12-19T08:27:43.106Z,4.23
2022-12-19T08:30:30.046Z,4.07
2022-12-19T08:33:17.519Z,4.23
2022-12-19T08:36:06.216Z,4.43
2022-12-19T08:38:53.568Z,3.47
2022-12-19T08:41:40.232Z,3.97
2022-12-19T08:44:28.920Z,3.70
2022-12-19T08:47:16.215Z,2.90
2022-12-19T08:50:03.494Z,3.57
2022-12-19T08:52:50.314Z,3.23
2022-12-19T08:55:37.319Z,3.27
2022-12-19T08:58:24.655Z,2.70
2022-12-19T09:01:16.148Z,2.67
2022-12-19T09:04:43.455Z,3.27
2022-12-19T09:07:10.402Z,2.33
2022-12-19T09:09:57.633Z,3.03
2022-12-19T09:12:44.754Z,2.70
2022-12-19T09:15:32.099Z,2.70
2022-12-19T09:18:20.995Z,3.23
2022-12-19T09:21:11.864Z,3.30
2022-12-19T09:24:07.054Z,3.10
2022-12-19T09:26:54.771Z,2.57
2022-12-19T09:29:41.897Z,2.67
2022-12-19T09:32:29.160Z,3.20
2022-12-19T09:35:17.706Z,2.83
2022-12-19T09:38:04.857Z,2.70
2022-12-19T09:41:03.513Z,2.30
2022-12-19T09:44:18.914Z,3.07
2022-12-19T09:47:14.619Z,2.63
2022-12-19T09:50:03.410Z,2.23
2022-12-19T09:53:00.219Z,2.20
2022-12-19T09:55:49.181Z,2.70
2022-12-19T09:58:46.680Z,2.27
2022-12-19T10:01:51.928Z,2.17
2022-12-19T10:04:44.746Z,2.43
2022-12-19T10:07:54.778Z,3.03
2022-12-19T10:12:36.160Z,2.90
2022-12-19T10:14:20.568Z,2.73
2022-12-19T10:17:25.325Z,2.30
2022-12-19T10:20:22.720Z,2.93
2022-12-19T10:23:41.701Z,2.93
2022-12-19T10:26:35.609Z,2.03
2022-12-19T10:29:52.854Z,2.90
2022-12-19T10:32:47.966Z,2.93
2022-12-19T10:35:38.961Z,2.80
2022-12-19T10:38:32.512Z,2.47
2022-12-19T10:41:25.285Z,3.03
2022-12-19T10:44:15.968Z,2.23
2022-12-19T10:47:04.476Z,2.50
2022-12-19T10:49:51.981Z,2.70
2022-12-19T10:52:52.893Z,2.50
2022-12-19T10:55:44.129Z,2.60
2022-12-19T10:58:35.122Z,2.67
2022-12-19T11:01:26.956Z,2.90
2022-12-19T11:04:26.977Z,2.97
2022-12-19T11:07:21.024Z,2.97
2022-12-19T11:11:41.386Z,3.00
2022-12-19T11:20:38.196Z,3.10
2022-12-19T11:27:39.956Z,2.37
2022-12-19T11:29:37.683Z,2.70
2022-12-19T11:29:40.108Z,2.43
2022-12-19T11:30:40.969Z,2.50
2022-12-19T11:33:14.326Z,2.80
2022-12-19T11:36:03.745Z,2.47
2022-12-19T11:38:54.258Z,2.33
2022-12-19T11:41:46.430Z,2.70
2022-12-19T11:44:40.295Z,2.30
2022-12-19T11:47:38.248Z,2.43
2022-12-19T11:50:31.306Z,2.83
2022-12-19T11:53:24.814Z,2.40
2022-12-19T11:56:16.245Z,2.43
2022-12-19T11:59:13.569Z,2.80
2022-12-19T12:02:24.062Z,2.43
2022-12-19T12:05:35.311Z,2.10
2022-12-19T12:11:24.840Z,2.10
2022-12-19T12:19:39.158Z,2.20
2022-12-19T12:19:52.131Z,2.50
2022-12-19T12:31:00.176Z,3.07
2022-12-19T12:31:17.155Z,2.50
2022-12-19T12:31:39.144Z,2.60
2022-12-19T12:31:48.870Z,2.30
2022-12-19T12:35:40.933Z,2.63
2022-12-19T12:38:51.931Z,2.80
2022-12-19T12:42:12.144Z,3.50
2022-12-19T12:45:01.562Z,2.90
2022-12-19T12:47:52.316Z,2.73
2022-12-19T12:50:42.924Z,3.00
2022-12-19T12:53:35.070Z,2.37
2022-12-19T12:56:23.754Z,2.87
2022-12-19T12:59:24.545Z,3.37
2022-12-19T13:02:18.589Z,3.23
2022-12-19T13:05:25.689Z,3.60
2022-12-19T13:08:35.609Z,3.40
2022-12-19T13:11:58.018Z,2.93
2022-12-19T13:14:48.336Z,3.03
2022-12-19T13:18:03.405Z,2.90
2022-12-19T13:20:51.002Z,3.17
2022-12-19T13:24:16.206Z,3.07
2022-12-19T13:27:05.748Z,3.20
2022-12-19T13:29:55.683Z,3.57
2022-12-19T13:33:13.269Z,2.73
2022-12-19T13:39:26.302Z,2.97
2022-12-19T13:39:54.295Z,2.70
2022-12-19T13:43:10.285Z,3.00
2022-12-19T13:46:00.106Z,2.90
2022-12-19T13:48:49.538Z,3.00
2022-12-19T13:51:47.518Z,2.80
2022-12-19T13:54:39.433Z,2.40
2022-12-19T13:57:29.079Z,2.93
2022-12-19T14:00:21.961Z,3.00
2022-12-19T14:03:17.648Z,2.23
2022-12-19T14:06:16.096Z,2.80
2022-12-19T14:11:27.195Z,4.10
2022-12-19T14:13:55.056Z,3.07
2022-12-19T14:15:52.438Z,3.23
2022-12-19T14:18:43.012Z,2.83
2022-12-19T14:22:09.906Z,2.53
2022-12-19T14:24:40.546Z,4.00
2022-12-19T14:28:26.431Z,2.63
2022-12-19T14:30:44.802Z,3.30
2022-12-19T14:33:46.476Z,3.47
2022-12-19T14:36:48.115Z,3.07
2022-12-19T14:39:38.532Z,2.70
2022-12-19T14:43:57.771Z,2.50
2022-12-19T14:54:06.893Z,4.50
2022-12-19T14:54:11.024Z,3.10
2022-12-19T14:54:37.572Z,4.20
2022-12-19T14:56:13.044Z,3.13
2022-12-19T14:58:58.662Z,2.77
2022-12-19T15:01:53.856Z,3.13
2022-12-19T15:04:53.369Z,2.73
2022-12-19T15:07:45.813Z,3.07
2022-12-19T15:11:08.578Z,3.47
2022-12-19T15:14:54.392Z,3.30
2022-12-19T15:16:48.364Z,2.97
2022-12-19T15:19:35.856Z,2.77
2022-12-19T15:22:24.472Z,3.30
2022-12-19T15:25:28.800Z,2.83
2022-12-19T15:28:24.711Z,2.93
2022-12-19T15:31:24.547Z,3.33
2022-12-19T15:34:44.811Z,3.53
2022-12-19T15:37:30.351Z,3.70
2022-12-19T15:40:19.404Z,4.43
2022-12-19T15:43:06.977Z,3.60
2022-12-19T15:45:58.711Z,4.80
2022-12-19T15:48:48.536Z,5.60
2022-12-19T15:51:35.616Z,5.57
2022-12-19T15:57:34.872Z,4.40
2022-12-19T16:00:25.443Z,5.37
2022-12-19T16:03:22.714Z,5.47
2022-12-19T16:06:14.303Z,5.10
2022-12-19T16:09:01.350Z,4.30
2022-12-19T16:11:50.756Z,6.10
2022-12-19T16:14:37.688Z,7.10
2022-12-19T16:17:26.179Z,8.43
2022-12-19T16:20:19.795Z,7.70
2022-12-19T16:23:07.482Z,4.60
2022-12-19T16:25:54.778Z,4.97
2022-12-19T16:28:43.473Z,5.37
2022-12-19T16:31:30.652Z,4.57
2022-12-19T16:34:20.535Z,4.17
2022-12-19T16:37:07.639Z,4.30
2022-12-19T16:39:54.736Z,4.00
2022-12-19T16:42:42.130Z,4.23
2022-12-19T16:45:32.937Z,4.13
2022-12-19T16:48:21.934Z,3.57
2022-12-19T16:51:17.747Z,3.53
2022-12-19T16:54:05.334Z,3.67
2022-12-19T16:56:54.421Z,4.20
2022-12-19T16:59:42.472Z,4.20
2022-12-19T17:02:41.828Z,4.03
2022-12-19T17:05:31.361Z,3.10
2022-12-19T17:08:19.357Z,4.00
2022-12-19T17:11:08.014Z,3.80
2022-12-19T17:14:01.838Z,4.87
2022-12-19T17:16:53.478Z,5.80
2022-12-19T17:19:45.280Z,5.00
2022-12-19T17:22:32.524Z,5.33
2022-12-19T17:25:25.652Z,8.73
2022-12-19T17:28:13.940Z,12.93
2022-12-19T17:31:05.500Z,8.33
2022-12-19T17:33:53.079Z,11.77
2022-12-19T17:36:41.798Z,7.10
2022-12-19T17:39:31.231Z,5.57
2022-12-19T17:42:23.346Z,10.07
2022-12-19T17:45:11.772Z,7.80
2022-12-19T17:48:03.438Z,5.20
2022-12-19T17:50:51.403Z,6.03
2022-12-19T17:53:40.079Z,5.17
2022-12-19T17:56:27.371Z,5.33
2022-12-19T17:59:14.856Z,5.20
2022-12-19T18:02:01.947Z,6.83
2022-12-19T18:04:50.660Z,6.07
2022-12-19T18:07:38.043Z,6.90
2022-12-19T18:10:29.069Z,5.53
2022-12-19T18:13:16.448Z,6.87
2022-12-19T18:16:05.050Z,6.57
2022-12-19T18:18:52.155Z,7.20
2022-12-19T18:21:39.450Z,6.17
2022-12-19T18:24:26.985Z,6.13
2022-12-19T18:27:15.367Z,5.87
2022-12-19T18:30:02.441Z,5.20
2022-12-19T18:32:52.775Z,5.60
2022-12-19T18:35:42.512Z,5.67
2022-12-19T18:38:29.662Z,5.50
2022-12-19T18:41:17.847Z,5.90
2022-12-19T18:44:36.772Z,5.70
2022-12-19T18:47:26.747Z,6.00
2022-12-19T18:50:20.627Z,6.70
2022-12-19T18:53:12.355Z,7.20
2022-12-19T18:56:00.061Z,7.07
2022-12-19T18:58:48.550Z,5.77
2022-12-19T19:01:40.706Z,5.03
2022-12-19T19:04:28.189Z,5.97
2022-12-19T19:07:15.641Z,6.07
2022-12-19T19:10:03.107Z,6.33
2022-12-19T19:12:50.765Z,4.80
2022-12-19T19:15:41.770Z,5.17
2022-12-19T19:18:33.182Z,5.00
2022-12-19T19:21:22.331Z,4.43
2022-12-19T19:24:12.451Z,5.30
2022-12-19T19:27:15.339Z,5.57
2022-12-19T19:30:03.189Z,5.00
2022-12-19T19:32:54.023Z,5.67
2022-12-19T19:35:45.237Z,6.20
2022-12-19T19:38:32.689Z,6.13
2022-12-19T19:41:19.631Z,8.00
2022-12-19T19:44:06.676Z,6.20
2022-12-19T19:46:53.687Z,6.43
2022-12-19T19:49:41.904Z,5.80
2022-12-19T19:52:32.364Z,7.50
2022-12-19T19:55:19.927Z,8.07
2022-12-19T19:58:07.095Z,7.27
2022-12-19T20:01:24.194Z,7.70
2022-12-19T20:04:15.320Z,7.53
2022-12-19T20:07:02.526Z,7.40
2022-12-19T20:09:51.247Z,9.73
2022-12-19T20:12:38.535Z,7.23
2022-12-19T20:15:25.818Z,10.93
2022-12-19T20:18:13.016Z,9.00
2022-12-19T20:21:00.410Z,9.83
2022-12-19T20:23:47.933Z,7.70
2022-12-19T20:26:36.773Z,6.03
2022-12-19T20:29:24.085Z,8.50
2022-12-19T20:32:11.259Z,6.93
2022-12-19T20:34:58.900Z,7.20
2022-12-19T20:37:45.925Z,8.50
2022-12-19T20:40:33.205Z,7.93
2022-12-19T20:43:21.668Z,7.43
2022-12-19T20:46:10.543Z,9.93
2022-12-19T20:48:58.691Z,7.13
2022-12-19T20:51:47.834Z,7.23
2022-12-19T20:54:35.103Z,7.53
2022-12-19T20:57:22.527Z,6.70
2022-12-19T21:00:14.392Z,8.27
2022-12-19T21:03:27.812Z,7.07
2022-12-19T21:06:10.787Z,7.00
2022-12-19T21:08:58.633Z,6.57
2022-12-19T21:11:45.548Z,7.40
2022-12-19T21:14:32.715Z,6.87
2022-12-19T21:17:21.040Z,5.93
2022-12-19T21:20:09.596Z,6.03
2022-12-19T21:22:56.824Z,6.87
2022-12-19T21:25:44.166Z,6.93
2022-12-19T21:28:32.188Z,5.53
2022-12-19T21:31:21.785Z,5.63
2022-12-19T21:34:11.965Z,6.10
2022-12-19T21:36:59.308Z,5.93
2022-12-19T21:39:46.225Z,6.57
2022-12-19T21:42:33.552Z,5.37
2022-12-19T21:45:20.310Z,6.37
2022-12-19T21:48:07.455Z,6.30
2022-12-19T21:50:58.180Z,5.90
2022-12-19T21:53:45.863Z,6.43
2022-12-19T21:56:35.187Z,6.03
2022-12-19T21:59:22.138Z,5.77
2022-12-19T22:02:11.247Z,6.40
2022-12-19T22:04:59.980Z,5.73
2022-12-19T22:07:48.245Z,5.87
2022-12-19T22:10:35.404Z,5.70
2022-12-19T22:13:22.397Z,5.90
2022-12-19T22:16:10.263Z,6.40
2022-12-19T22:18:57.846Z,6.37
2022-12-19T22:21:46.002Z,6.30
2022-12-19T22:24:34.408Z,5.60
2022-12-19T22:27:21.485Z,4.97
2022-12-19T22:30:11.283Z,4.73
2022-12-19T22:32:58.336Z,5.20
2022-12-19T22:35:45.526Z,4.93
2022-12-19T22:38:33.055Z,5.43
2022-12-19T22:41:21.688Z,5.17
2022-12-19T22:44:09.543Z,4.83
2022-12-19T22:46:56.631Z,5.63
2022-12-19T22:49:43.615Z,5.20
2022-12-19T22:52:30.669Z,6.70
2022-12-19T22:55:18.073Z,5.13
2022-12-19T22:58:06.421Z,5.93
2022-12-19T23:00:53.520Z,5.93
2022-12-19T23:03:40.741Z,6.03
2022-12-19T23:06:30.477Z,5.00
2022-12-19T23:09:18.559Z,5.70
2022-12-19T23:12:06.032Z,5.00
2022-12-19T23:14:54.890Z,5.43
2022-12-19T23:17:41.994Z,5.10
2022-12-19T23:20:28.899Z,4.53
2022-12-19T23:23:16.486Z,4.60
2022-12-19T23:26:03.486Z,4.60
2022-12-19T23:28:53.389Z,5.30
2022-12-19T23:31:43.394Z,5.10
2022-12-19T23:34:30.322Z,5.17
2022-12-19T23:37:17.539Z,5.27
2022-12-19T23:40:05.068Z,5.13
2022-12-19T23:42:52.259Z,4.47
2022-12-19T23:45:39.830Z,4.67
2022-12-19T23:48:29.647Z,5.17
2022-12-19T23:51:19.551Z,5.57
2022-12-19T23:54:06.812Z,5.63
2022-12-19T23:56:54.192Z,5.87
2022-12-19T23:59:41.279Z,5.23
